createdAt,value
2022-08-28T00:01:36.953Z,7.17
2022-08-28T00:04:04.089Z,5.67
2022-08-28T00:06:30.942Z,7.40
2022-08-28T00:08:57.847Z,6.57
2022-08-28T00:11:24.869Z,6.77
2022-08-28T00:13:52.970Z,5.83
2022-08-28T00:16:23.475Z,5.27
2022-08-28T00:18:53.553Z,7.53
2022-08-28T00:21:20.284Z,7.27
2022-08-28T00:23:47.130Z,5.50
2022-08-28T00:26:37.005Z,5.37
2022-08-28T00:29:06.763Z,6.07
2022-08-28T00:31:37.394Z,7.37
2022-08-28T00:34:04.474Z,10.37
2022-08-28T00:36:31.256Z,6.07
2022-08-28T00:39:00.175Z,11.60
2022-08-28T00:41:31.209Z,5.90
2022-08-28T00:44:16.499Z,10.03
2022-08-28T00:46:46.811Z,7.03
2022-08-28T00:49:16.376Z,7.47
2022-08-28T00:52:02.823Z,7.87
2022-08-28T00:54:34.499Z,8.03
2022-08-28T00:57:06.613Z,6.53
2022-08-28T00:59:34.737Z,6.97
2022-08-28T01:02:02.052Z,6.33
2022-08-28T01:04:32.470Z,9.00
2022-08-28T01:07:05.485Z,8.83
2022-08-28T01:09:34.334Z,8.07
2022-08-28T01:12:12.110Z,5.60
2022-08-28T01:14:45.710Z,8.03
2022-08-28T01:17:16.098Z,5.20
2022-08-28T01:19:58.295Z,8.70
2022-08-28T01:22:59.191Z,6.43
2022-08-28T01:25:31.924Z,5.10
2022-08-28T01:27:59.274Z,9.50
2022-08-28T01:30:26.341Z,5.17
2022-08-28T01:32:56.693Z,6.33
2022-08-28T01:35:33.037Z,6.13
2022-08-28T01:38:01.135Z,8.30
2022-08-28T01:40:48.110Z,8.17
2022-08-28T01:43:24.066Z,7.13
2022-08-28T01:45:57.183Z,9.73
2022-08-28T01:48:26.384Z,6.87
2022-08-28T01:50:53.597Z,7.03
2022-08-28T01:53:25.040Z,6.83
2022-08-28T01:55:54.521Z,6.93
2022-08-28T01:58:23.032Z,7.13
2022-08-28T02:00:50.801Z,12.67
2022-08-28T02:03:17.610Z,8.63
2022-08-28T02:05:45.961Z,4.57
2022-08-28T02:08:14.028Z,8.13
2022-08-28T02:10:43.528Z,8.27
2022-08-28T02:13:11.812Z,6.30
2022-08-28T02:15:41.576Z,6.63
2022-08-28T02:18:09.082Z,7.67
2022-08-28T02:20:36.387Z,7.97
2022-08-28T02:23:05.076Z,6.87
2022-08-28T02:25:32.498Z,12.23
2022-08-28T02:27:59.478Z,8.33
2022-08-28T02:30:27.050Z,7.53
2022-08-28T02:32:54.237Z,12.23
2022-08-28T02:35:23.543Z,7.10
2022-08-28T02:37:51.340Z,8.87
2022-08-28T02:40:24.168Z,8.53
2022-08-28T02:42:52.050Z,9.33
2022-08-28T02:45:20.464Z,7.27
2022-08-28T02:47:48.293Z,6.23
2022-08-28T02:50:19.642Z,6.40
2022-08-28T02:52:46.831Z,9.70
2022-08-28T02:55:17.677Z,8.97
2022-08-28T02:57:46.428Z,7.20
2022-08-28T03:00:21.558Z,6.23
2022-08-28T03:02:48.959Z,8.40
2022-08-28T03:05:20.960Z,6.80
2022-08-28T03:07:48.914Z,10.70
2022-08-28T03:10:16.016Z,9.43
2022-08-28T03:12:42.749Z,6.03
2022-08-28T03:15:10.040Z,8.97
2022-08-28T03:17:38.317Z,12.97
2022-08-28T03:20:09.593Z,10.07
2022-08-28T03:22:55.285Z,11.60
2022-08-28T03:25:22.653Z,7.53
2022-08-28T03:27:50.316Z,8.27
2022-08-28T03:30:19.052Z,11.07
2022-08-28T03:32:45.869Z,11.80
2022-08-28T03:35:13.187Z,9.47
2022-08-28T03:37:40.419Z,7.33
2022-08-28T03:40:09.400Z,9.93
2022-08-28T03:42:36.244Z,7.90
2022-08-28T03:45:05.720Z,5.97
2022-08-28T03:47:32.551Z,8.13
2022-08-28T03:49:59.971Z,8.83
2022-08-28T03:52:26.790Z,11.77
2022-08-28T03:54:53.620Z,12.30
2022-08-28T03:57:22.691Z,12.30
2022-08-28T03:59:52.767Z,10.10
2022-08-28T04:02:20.641Z,11.57
2022-08-28T04:04:50.480Z,8.83
2022-08-28T04:07:19.194Z,10.17
2022-08-28T04:09:46.675Z,12.10
2022-08-28T04:12:14.530Z,14.87
2022-08-28T04:14:41.853Z,10.07
2022-08-28T04:17:08.802Z,11.17
2022-08-28T04:19:36.098Z,8.73
2022-08-28T04:22:02.876Z,12.23
2022-08-28T04:24:29.803Z,11.57
2022-08-28T04:26:56.606Z,12.17
2022-08-28T04:29:23.612Z,11.17
2022-08-28T04:31:50.849Z,12.03
2022-08-28T04:34:17.968Z,11.43
2022-08-28T04:36:46.221Z,11.47
2022-08-28T04:39:13.362Z,14.70
2022-08-28T04:41:40.513Z,12.57
2022-08-28T04:44:08.375Z,10.80
2022-08-28T04:46:35.741Z,16.40
2022-08-28T04:49:04.312Z,11.23
2022-08-28T04:51:32.209Z,14.60
2022-08-28T04:54:00.137Z,12.57
2022-08-28T04:56:27.226Z,12.40
2022-08-28T04:58:54.378Z,11.57
2022-08-28T05:01:26.851Z,12.70
2022-08-28T05:03:58.888Z,12.53
2022-08-28T05:06:28.766Z,8.73
2022-08-28T05:08:58.466Z,15.30
2022-08-28T05:11:34.579Z,12.90
2022-08-28T05:14:11.574Z,12.67
2022-08-28T05:16:52.866Z,12.10
2022-08-28T05:19:21.292Z,11.83
2022-08-28T05:21:48.261Z,18.53
2022-08-28T05:24:15.452Z,12.07
2022-08-28T05:26:42.866Z,12.10
2022-08-28T05:29:11.035Z,12.73
2022-08-28T05:31:40.778Z,12.30
2022-08-28T05:34:08.174Z,12.50
2022-08-28T05:36:38.094Z,9.60
2022-08-28T05:39:10.495Z,13.73
2022-08-28T05:41:40.664Z,10.77
2022-08-28T05:44:11.427Z,11.87
2022-08-28T05:46:43.538Z,15.13
2022-08-28T05:49:10.620Z,12.93
2022-08-28T05:51:41.360Z,12.97
2022-08-28T05:54:08.734Z,9.47
2022-08-28T05:56:39.345Z,12.83
2022-08-28T05:59:08.909Z,12.10
2022-08-28T06:01:40.730Z,11.47
2022-08-28T06:04:23.319Z,12.60
2022-08-28T06:06:50.375Z,11.07
2022-08-28T06:09:28.032Z,10.47
2022-08-28T06:11:59.178Z,8.47
2022-08-28T06:14:26.624Z,11.37
2022-08-28T06:16:56.284Z,9.40
2022-08-28T06:19:25.797Z,13.17
2022-08-28T06:21:58.059Z,15.90
2022-08-28T06:24:26.697Z,8.37
2022-08-28T06:26:54.638Z,13.30
2022-08-28T06:29:25.993Z,11.20
2022-08-28T06:32:00.845Z,16.33
2022-08-28T06:34:28.096Z,12.17
2022-08-28T06:36:55.831Z,13.60
2022-08-28T06:39:23.617Z,16.57
2022-08-28T06:41:50.370Z,18.43
2022-08-28T06:44:20.475Z,10.67
2022-08-28T06:46:51.231Z,10.70
2022-08-28T06:49:20.659Z,14.10
2022-08-28T06:51:47.471Z,16.37
2022-08-28T06:54:21.823Z,8.83
2022-08-28T06:56:59.996Z,10.33
2022-08-28T06:59:28.451Z,13.07
2022-08-28T07:01:55.742Z,11.30
2022-08-28T07:04:22.848Z,11.20
2022-08-28T07:06:54.775Z,8.17
2022-08-28T07:09:24.354Z,10.17
2022-08-28T07:11:51.423Z,10.53
2022-08-28T07:14:18.511Z,13.40
2022-08-28T07:16:45.953Z,11.03
2022-08-28T07:19:13.563Z,11.30
2022-08-28T07:21:44.437Z,11.50
2022-08-28T07:24:15.009Z,14.67
2022-08-28T07:26:43.622Z,12.10
2022-08-28T07:29:18.797Z,10.60
2022-08-28T07:31:54.010Z,12.57
2022-08-28T07:34:27.127Z,10.40
2022-08-28T07:36:54.581Z,12.87
2022-08-28T07:39:21.578Z,7.07
2022-08-28T07:41:49.045Z,10.77
2022-08-28T07:44:35.759Z,10.83
2022-08-28T07:47:06.459Z,7.67
2022-08-28T07:49:35.910Z,8.77
2022-08-28T07:52:03.838Z,9.57
2022-08-28T07:54:30.581Z,15.33
2022-08-28T07:56:57.438Z,9.93
2022-08-28T07:59:24.455Z,8.83
2022-08-28T08:02:02.607Z,8.43
2022-08-28T08:04:30.424Z,11.43
2022-08-28T08:06:58.286Z,13.63
2022-08-28T08:09:26.399Z,8.80
2022-08-28T08:11:54.922Z,12.00
2022-08-28T08:14:22.429Z,10.83
2022-08-28T08:16:50.408Z,16.33
2022-08-28T08:19:18.874Z,8.97
2022-08-28T08:21:53.402Z,11.17
2022-08-28T08:24:26.403Z,14.30
2022-08-28T08:27:00.094Z,9.83
2022-08-28T08:29:31.703Z,9.67
2022-08-28T08:32:05.622Z,8.33
2022-08-28T08:34:41.097Z,10.80
2022-08-28T08:37:09.456Z,9.48
2022-08-28T08:39:37.586Z,12.63
2022-08-28T08:42:30.979Z,11.27
2022-08-28T08:45:05.911Z,9.00
2022-08-28T08:47:48.823Z,12.43
2022-08-28T08:50:36.096Z,14.52
2022-08-28T08:53:24.560Z,8.70
2022-08-28T08:55:58.624Z,12.93
2022-08-28T08:58:43.989Z,11.23
2022-08-28T09:01:39.447Z,9.70
2022-08-28T09:04:27.518Z,9.82
2022-08-28T09:07:07.640Z,11.40
2022-08-28T09:09:44.207Z,7.20
2022-08-28T09:12:23.078Z,8.55
2022-08-28T09:15:05.281Z,9.55
2022-08-28T09:17:39.269Z,9.50
2022-08-28T09:20:09.672Z,6.68
2022-08-28T09:22:42.280Z,9.90
2022-08-28T09:25:33.164Z,5.00
2022-08-28T09:28:09.541Z,9.13
2022-08-28T09:30:38.368Z,8.40
2022-08-28T09:33:05.341Z,6.35
2022-08-28T09:35:37.304Z,7.00
2022-08-28T09:38:21.758Z,9.20
2022-08-28T09:41:09.110Z,6.95
2022-08-28T09:43:38.125Z,7.28
2022-08-28T09:46:23.958Z,7.55
2022-08-28T09:48:54.445Z,9.27
2022-08-28T09:51:21.273Z,8.88
2022-08-28T09:53:51.010Z,7.43
2022-08-28T09:56:36.998Z,8.93
2022-08-28T09:59:18.058Z,9.18
2022-08-28T10:02:13.611Z,7.22
2022-08-28T10:05:07.559Z,4.78
2022-08-28T10:08:11.166Z,8.00
2022-08-28T10:10:58.363Z,8.40
2022-08-28T10:13:45.118Z,7.00
2022-08-28T10:16:28.773Z,10.70
2022-08-28T10:19:24.386Z,8.75
2022-08-28T10:22:00.912Z,6.68
2022-08-28T10:25:07.895Z,5.18
2022-08-28T10:28:05.394Z,9.10
2022-08-28T10:30:44.408Z,5.85
2022-08-28T10:33:48.058Z,6.18
2022-08-28T10:36:33.881Z,6.20
2022-08-28T10:39:22.608Z,6.45
2022-08-28T10:42:02.062Z,6.30
2022-08-28T10:44:54.462Z,7.88
2022-08-28T10:47:25.702Z,8.02
2022-08-28T10:50:02.721Z,7.05
2022-08-28T10:52:58.215Z,7.55
2022-08-28T10:55:47.624Z,8.60
2022-08-28T10:58:24.841Z,5.22
2022-08-28T11:01:02.150Z,8.77
2022-08-28T11:03:36.624Z,8.70
2022-08-28T11:06:48.082Z,6.25
2022-08-28T11:09:37.443Z,6.00
2022-08-28T11:12:09.606Z,9.23
2022-08-28T11:14:48.575Z,7.95
2022-08-28T11:17:25.244Z,6.07
2022-08-28T11:20:10.048Z,5.50
2022-08-28T11:22:49.509Z,4.68
2022-08-28T11:25:32.779Z,6.35
2022-08-28T11:28:25.386Z,7.93
2022-08-28T11:30:58.381Z,6.00
2022-08-28T11:33:52.492Z,7.00
2022-08-28T11:36:22.131Z,5.05
2022-08-28T11:38:51.580Z,5.32
2022-08-28T11:41:36.493Z,7.05
2022-08-28T11:44:09.345Z,9.57
2022-08-28T11:46:50.878Z,6.32
2022-08-28T11:49:26.710Z,5.60
2022-08-28T11:52:57.224Z,7.82
2022-08-28T11:55:58.280Z,9.27
2022-08-28T11:58:59.305Z,10.57
2022-08-28T12:01:31.529Z,6.40
2022-08-28T12:04:08.077Z,10.50
2022-08-28T12:07:13.234Z,7.85
2022-08-28T12:09:49.463Z,8.13
2022-08-28T12:12:22.283Z,9.48
2022-08-28T12:14:55.383Z,8.88
2022-08-28T12:17:22.153Z,9.60
2022-08-28T12:20:20.102Z,7.28
2022-08-28T12:22:55.773Z,6.30
2022-08-28T12:25:31.715Z,8.13
2022-08-28T12:28:04.686Z,6.05
2022-08-28T12:30:52.879Z,8.23
2022-08-28T12:33:53.230Z,7.43
2022-08-28T12:36:26.728Z,8.20
2022-08-28T12:38:58.399Z,6.40
2022-08-28T12:41:25.459Z,7.95
2022-08-28T12:43:58.448Z,6.20
2022-08-28T12:46:37.910Z,10.00
2022-08-28T12:49:36.236Z,9.00
2022-08-28T12:52:22.778Z,3.95
2022-08-28T12:54:52.345Z,5.33
2022-08-28T12:57:24.161Z,6.85
2022-08-28T12:59:54.597Z,6.70
2022-08-28T13:02:34.298Z,5.80
2022-08-28T13:05:10.000Z,4.57
2022-08-28T13:07:49.045Z,9.55
2022-08-28T13:10:29.648Z,4.80
2022-08-28T13:13:10.926Z,8.18
2022-08-28T13:16:08.532Z,6.22
2022-08-28T13:19:06.387Z,9.85
2022-08-28T13:21:52.242Z,4.13
2022-08-28T13:24:22.089Z,6.35
2022-08-28T13:27:04.180Z,5.95
2022-08-28T13:29:32.330Z,6.90
2022-08-28T13:32:09.963Z,8.30
2022-08-28T13:34:47.787Z,7.95
2022-08-28T13:37:48.049Z,6.32
2022-08-28T13:40:53.467Z,6.15
2022-08-28T13:43:10.977Z,4.70
2022-08-28T13:45:44.708Z,6.90
2022-08-28T13:48:19.896Z,3.28
2022-08-28T13:50:52.505Z,5.47
2022-08-28T13:53:21.629Z,4.20
2022-08-28T13:55:51.047Z,3.97
2022-08-28T13:58:21.380Z,4.32
2022-08-28T14:00:50.979Z,3.60
2022-08-28T14:03:38.076Z,5.40
2022-08-28T14:06:18.294Z,10.18
2022-08-28T14:08:46.783Z,6.38
2022-08-28T14:11:18.201Z,5.82
2022-08-28T14:13:47.348Z,4.13
2022-08-28T14:16:26.320Z,3.28
2022-08-28T14:18:53.906Z,4.82
2022-08-28T14:21:24.722Z,3.75
2022-08-28T14:23:51.987Z,5.65
2022-08-28T14:26:18.981Z,7.13
2022-08-28T14:28:45.936Z,3.63
2022-08-28T14:31:14.781Z,5.72
2022-08-28T14:33:44.335Z,5.43
2022-08-28T14:36:23.267Z,5.50
2022-08-28T14:38:54.283Z,7.10
2022-08-28T14:41:23.950Z,7.75
2022-08-28T14:43:51.749Z,4.55
2022-08-28T14:46:38.474Z,5.63
2022-08-28T14:49:09.170Z,3.70
2022-08-28T14:51:39.189Z,5.85
2022-08-28T14:54:08.671Z,5.20
2022-08-28T14:56:36.377Z,5.88
2022-08-28T14:59:06.628Z,8.02
2022-08-28T15:01:40.973Z,4.20
2022-08-28T15:04:12.753Z,4.63
2022-08-28T15:06:42.263Z,4.43
2022-08-28T15:09:11.596Z,4.13
2022-08-28T15:11:41.036Z,4.70
2022-08-28T15:14:08.985Z,4.25
2022-08-28T15:16:42.117Z,8.35
2022-08-28T15:19:12.368Z,2.95
2022-08-28T15:21:49.536Z,3.30
2022-08-28T15:24:19.661Z,3.15
2022-08-28T15:26:53.449Z,3.97
2022-08-28T15:29:21.386Z,5.50
2022-08-28T15:31:50.774Z,3.92
2022-08-28T15:34:22.694Z,4.05
2022-08-28T15:36:54.505Z,5.10
2022-08-28T15:39:42.833Z,3.22
2022-08-28T15:42:11.305Z,6.25
2022-08-28T15:44:38.804Z,6.82
2022-08-28T15:47:06.195Z,4.00
2022-08-28T15:49:38.804Z,3.47
2022-08-28T15:52:12.630Z,4.32
2022-08-28T15:54:39.552Z,5.20
2022-08-28T15:57:06.681Z,7.40
2022-08-28T15:59:48.418Z,5.68
2022-08-28T16:02:22.783Z,5.55
2022-08-28T16:04:49.913Z,4.65
2022-08-28T16:07:18.325Z,6.25
2022-08-28T16:09:45.266Z,6.65
2022-08-28T16:12:12.070Z,3.97
2022-08-28T16:14:38.810Z,2.97
2022-08-28T16:17:10.952Z,5.55
2022-08-28T16:19:40.720Z,5.70
2022-08-28T16:22:14.193Z,4.97
2022-08-28T16:24:41.687Z,5.35
2022-08-28T16:27:14.601Z,4.13
2022-08-28T16:29:43.827Z,5.10
2022-08-28T16:32:11.858Z,3.70
2022-08-28T16:34:40.056Z,3.15
2022-08-28T16:37:07.988Z,5.25
2022-08-28T16:39:37.034Z,2.70
2022-08-28T16:42:05.044Z,13.88
2022-08-28T16:44:32.193Z,5.40
2022-08-28T16:46:59.686Z,6.43
2022-08-28T16:49:30.896Z,2.47
2022-08-28T16:51:57.809Z,4.43
2022-08-28T16:54:24.867Z,3.85
2022-08-28T16:56:51.623Z,3.38
2022-08-28T16:59:23.283Z,3.92
2022-08-28T17:01:52.836Z,3.72
2022-08-28T17:04:21.338Z,2.13
2022-08-28T17:06:48.492Z,6.10
2022-08-28T17:09:15.642Z,3.90
2022-08-28T17:11:42.760Z,2.63
2022-08-28T17:14:12.113Z,3.83
2022-08-28T17:16:39.182Z,4.45
2022-08-28T17:19:06.494Z,2.53
2022-08-28T17:21:52.119Z,4.65
2022-08-28T17:24:19.402Z,2.10
2022-08-28T17:26:46.923Z,3.60
2022-08-28T17:29:14.020Z,2.97
2022-08-28T17:31:41.475Z,2.25
2022-08-28T17:34:09.006Z,2.17
2022-08-28T17:36:40.972Z,3.20
2022-08-28T17:39:13.165Z,3.20
2022-08-28T17:41:40.416Z,4.30
2022-08-28T17:44:08.269Z,5.32
2022-08-28T17:46:38.088Z,6.10
2022-08-28T17:49:07.824Z,3.97
2022-08-28T17:51:42.786Z,5.35
2022-08-28T17:54:17.773Z,4.78
2022-08-28T17:56:45.360Z,2.20
2022-08-28T17:59:13.836Z,2.83
2022-08-28T18:01:47.262Z,3.25
2022-08-28T18:04:23.233Z,4.93
2022-08-28T18:06:54.961Z,2.95
2022-08-28T18:09:27.645Z,3.20
2022-08-28T18:11:54.644Z,4.00
2022-08-28T18:14:25.111Z,4.45
2022-08-28T18:16:52.871Z,4.65
2022-08-28T18:19:20.220Z,7.05
2022-08-28T18:21:47.267Z,3.05
2022-08-28T18:24:15.194Z,3.53
2022-08-28T18:26:44.198Z,3.50
2022-08-28T18:29:12.401Z,3.95
2022-08-28T18:31:43.696Z,2.92
2022-08-28T18:34:12.084Z,2.38
2022-08-28T18:36:42.713Z,2.22
2022-08-28T18:39:10.851Z,4.65
2022-08-28T18:41:43.492Z,6.47
2022-08-28T18:44:13.874Z,4.85
2022-08-28T18:46:42.909Z,3.83
2022-08-28T18:49:11.031Z,3.80
2022-08-28T18:51:37.989Z,3.90
2022-08-28T18:54:06.424Z,5.20
2022-08-28T18:56:38.349Z,5.53
2022-08-28T18:59:18.138Z,3.47
2022-08-28T19:01:48.294Z,5.43
2022-08-28T19:04:15.222Z,4.88
2022-08-28T19:06:42.736Z,3.88
2022-08-28T19:09:20.392Z,3.50
2022-08-28T19:11:48.252Z,3.33
2022-08-28T19:14:15.068Z,3.55
2022-08-28T19:16:42.213Z,3.85
2022-08-28T19:19:09.665Z,4.30
2022-08-28T19:21:37.002Z,3.90
2022-08-28T19:24:05.333Z,3.93
2022-08-28T19:26:32.452Z,3.03
2022-08-28T19:29:00.152Z,2.80
2022-08-28T19:31:28.229Z,7.00
2022-08-28T19:34:00.775Z,5.33
2022-08-28T19:36:30.265Z,4.10
2022-08-28T19:38:58.544Z,3.87
2022-08-28T19:41:26.393Z,3.40
2022-08-28T19:43:56.218Z,3.33
2022-08-28T19:46:23.410Z,5.27
2022-08-28T19:48:52.837Z,1.97
2022-08-28T19:51:23.996Z,6.10
2022-08-28T19:53:58.175Z,3.27
2022-08-28T19:56:28.404Z,2.57
2022-08-28T19:59:03.627Z,3.90
2022-08-28T20:01:36.917Z,6.17
2022-08-28T20:04:08.622Z,3.70
2022-08-28T20:06:37.230Z,4.40
2022-08-28T20:09:07.404Z,4.00
2022-08-28T20:11:38.458Z,3.33
2022-08-28T20:14:06.735Z,4.13
2022-08-28T20:16:39.130Z,4.53
2022-08-28T20:19:07.908Z,2.77
2022-08-28T20:21:40.533Z,4.43
2022-08-28T20:24:12.002Z,3.97
2022-08-28T20:26:39.633Z,3.30
2022-08-28T20:29:09.597Z,3.80
2022-08-28T20:31:41.110Z,5.03
2022-08-28T20:34:11.748Z,3.37
2022-08-28T20:36:39.491Z,4.60
2022-08-28T20:39:09.210Z,5.93
2022-08-28T20:41:39.400Z,2.30
2022-08-28T20:44:09.199Z,3.47
2022-08-28T20:46:40.817Z,5.20
2022-08-28T20:49:10.118Z,4.57
2022-08-28T20:51:52.723Z,6.20
2022-08-28T20:54:38.886Z,3.23
2022-08-28T20:57:10.666Z,5.03
2022-08-28T20:59:40.689Z,3.47
2022-08-28T21:02:22.469Z,5.67
2022-08-28T21:04:49.745Z,3.23
2022-08-28T21:07:20.858Z,5.93
2022-08-28T21:10:05.529Z,3.73
2022-08-28T21:12:36.786Z,4.03
2022-08-28T21:15:10.144Z,3.33
2022-08-28T21:17:37.003Z,3.60
2022-08-28T21:20:15.113Z,2.83
2022-08-28T21:22:42.876Z,4.33
2022-08-28T21:25:11.365Z,4.33
2022-08-28T21:27:39.296Z,2.70
2022-08-28T21:30:08.129Z,5.43
2022-08-28T21:32:36.157Z,3.00
2022-08-28T21:35:06.119Z,9.03
2022-08-28T21:37:33.879Z,6.67
2022-08-28T21:40:01.727Z,5.27
2022-08-28T21:42:29.026Z,7.47
2022-08-28T21:44:55.882Z,5.03
2022-08-28T21:47:24.376Z,8.43
2022-08-28T21:49:54.361Z,4.20
2022-08-28T21:52:24.410Z,7.90
2022-08-28T21:54:57.994Z,4.33
2022-08-28T21:57:25.294Z,8.60
2022-08-28T21:59:52.217Z,11.37
2022-08-28T22:02:19.014Z,4.87
2022-08-28T22:04:46.000Z,5.50
2022-08-28T22:07:14.032Z,7.73
2022-08-28T22:09:41.038Z,5.27
2022-08-28T22:12:09.111Z,8.50
2022-08-28T22:14:37.851Z,7.53
2022-08-28T22:17:11.264Z,5.97
2022-08-28T22:19:39.794Z,8.80
2022-08-28T22:22:26.406Z,8.20
2022-08-28T22:24:53.920Z,6.77
2022-08-28T22:27:21.493Z,10.87
2022-08-28T22:29:48.341Z,5.43
2022-08-28T22:32:15.482Z,4.93
2022-08-28T22:34:45.339Z,5.73
2022-08-28T22:37:13.402Z,3.80
2022-08-28T22:39:42.474Z,5.37
2022-08-28T22:42:10.300Z,7.63
2022-08-28T22:44:38.350Z,4.47
2022-08-28T22:47:06.197Z,4.50
2022-08-28T22:49:33.424Z,4.60
2022-08-28T22:52:03.309Z,9.60
2022-08-28T22:54:33.205Z,4.57
2022-08-28T22:56:59.939Z,6.10
2022-08-28T22:59:27.940Z,3.83
2022-08-28T23:01:55.178Z,3.70
2022-08-28T23:04:21.967Z,4.27
2022-08-28T23:06:49.756Z,5.20
2022-08-28T23:09:16.640Z,5.27
2022-08-28T23:11:43.932Z,4.87
2022-08-28T23:14:10.837Z,4.23
2022-08-28T23:16:38.985Z,4.40
2022-08-28T23:19:09.047Z,4.90
2022-08-28T23:21:40.864Z,7.53
2022-08-28T23:24:12.422Z,5.97
2022-08-28T23:26:39.422Z,5.43
2022-08-28T23:29:06.279Z,7.90
2022-08-28T23:31:33.180Z,4.40
2022-08-28T23:34:00.203Z,7.30
2022-08-28T23:36:27.282Z,4.20
2022-08-28T23:38:54.273Z,5.03
2022-08-28T23:41:21.458Z,4.07
2022-08-28T23:43:49.018Z,8.13
2022-08-28T23:46:18.063Z,8.00
2022-08-28T23:48:46.074Z,3.23
2022-08-28T23:51:17.087Z,3.70
2022-08-28T23:53:44.481Z,5.57
2022-08-28T23:56:11.555Z,5.80
2022-08-28T23:58:40.318Z,6.40
